Terminal Aerodrome Forecast
Issued by NWS

Current Version | Previous Version | Text Only | Print | Product List | Glossary On
Versions: 1 2 3 4 5 6 7 8 9 10 11 12 13 14 15 16 17
000
FTUS45 KGGW 190520
TAFSDY
TAF
KSDY 190520Z 1906/2006 VRB05KT P6SM SKC
     FM191500 27011KT P6SM SCT250
     FM192000 31016KT P6SM SCT150
     FM200500 36005KT P6SM FEW150=

USA.gov is the U.S. government's official web portal to all federal, state and local government web resources and services.